createdAt,value
2024-04-25T00:00:21.028Z,2.1
2024-04-25T00:01:23.074Z,2.1
2024-04-25T00:02:25.118Z,2.1
2024-04-25T00:03:27.046Z,2.1
2024-04-25T00:04:29.067Z,2.1
2024-04-25T00:05:31.823Z,2.1
2024-04-25T00:06:33.044Z,2.1
2024-04-25T00:07:35.021Z,2.1
2024-04-25T00:08:37.046Z,2.1
2024-04-25T00:09:39.009Z,2
2024-04-25T00:10:41.042Z,2
2024-04-25T00:11:43.088Z,2
2024-04-25T00:12:45.008Z,2
2024-04-25T00:13:47.009Z,2
2024-04-25T00:14:49.005Z,2
2024-04-25T00:15:51.029Z,2
2024-04-25T00:16:53.055Z,2
2024-04-25T00:17:55.060Z,2
2024-04-25T00:18:57.005Z,2
2024-04-25T00:19:59.033Z,2
2024-04-25T00:21:01.025Z,2
2024-04-25T00:22:03.130Z,2
2024-04-25T00:23:05.442Z,2
2024-04-25T00:24:06.993Z,2
2024-04-25T00:25:09.211Z,2
2024-04-25T00:26:11.586Z,2
2024-04-25T00:27:12.996Z,2
2024-04-25T00:28:15.425Z,2
2024-04-25T00:29:17.056Z,2
2024-04-25T00:30:18.983Z,2
2024-04-25T00:31:21.599Z,2
2024-04-25T00:32:23.019Z,2
2024-04-25T00:33:25.042Z,2
2024-04-25T00:34:27.005Z,2
2024-04-25T00:35:29.036Z,2
2024-04-25T00:36:30.977Z,2
2024-04-25T00:37:33.606Z,2
2024-04-25T00:38:35.724Z,2
2024-04-25T00:39:37.045Z,2
2024-04-25T00:40:38.977Z,2
2024-04-25T00:41:40.995Z,2
2024-04-25T00:42:43.257Z,2
2024-04-25T00:43:45.012Z,2
2024-04-25T00:44:47.015Z,2
2024-04-25T00:45:48.989Z,2
2024-04-25T00:46:50.976Z,2
2024-04-25T00:47:53.043Z,2
2024-04-25T00:48:55.094Z,2
2024-04-25T00:49:56.962Z,2
2024-04-25T00:50:58.961Z,2
2024-04-25T00:52:00.966Z,2.1
2024-04-25T00:53:03.003Z,2
2024-04-25T00:54:04.960Z,2
2024-04-25T00:55:06.955Z,2.1
2024-04-25T00:56:08.961Z,2
2024-04-25T00:57:10.978Z,2
2024-04-25T00:58:12.984Z,2
2024-04-25T00:59:14.963Z,2.1
2024-04-25T01:00:16.958Z,2
2024-04-25T01:01:18.959Z,2
2024-04-25T01:02:21.060Z,2
2024-04-25T01:03:22.972Z,2.1
2024-04-25T01:04:24.971Z,2
2024-04-25T01:05:26.974Z,2
2024-04-25T01:06:28.967Z,2
2024-04-25T01:07:30.967Z,2
2024-04-25T01:08:32.985Z,2
2024-04-25T01:09:34.956Z,2
2024-04-25T01:10:36.936Z,2
2024-04-25T01:11:39.045Z,2
2024-04-25T01:12:40.929Z,2
2024-04-25T01:13:42.945Z,2
2024-04-25T01:14:44.947Z,2
2024-04-25T01:15:46.955Z,2
2024-04-25T01:16:49.067Z,2.1
2024-04-25T01:17:50.991Z,2.1
2024-04-25T01:18:52.925Z,2.1
2024-04-25T01:19:54.932Z,2
2024-04-25T01:20:56.952Z,2
2024-04-25T01:21:58.935Z,2.1
2024-04-25T01:23:00.922Z,2.1
2024-04-25T01:24:02.993Z,2
2024-04-25T01:25:04.958Z,2
2024-04-25T01:26:07.062Z,2.1
2024-04-25T01:27:08.925Z,2.1
2024-04-25T01:28:10.908Z,2.1
2024-04-25T01:29:12.917Z,2.1
2024-04-25T01:30:14.944Z,2.1
2024-04-25T01:31:16.907Z,2.1
2024-04-25T01:32:18.957Z,2.1
2024-04-25T01:33:21.034Z,2.1
2024-04-25T01:34:22.935Z,2.1
2024-04-25T01:35:24.984Z,2.1
2024-04-25T01:36:26.902Z,2.1
2024-04-25T01:37:28.901Z,2.1
2024-04-25T01:38:30.962Z,2.1
2024-04-25T01:39:32.944Z,2.1
2024-04-25T01:40:34.899Z,2.1
2024-04-25T01:41:36.918Z,2.1
2024-04-25T01:42:38.912Z,2.1
2024-04-25T01:43:40.914Z,2.1
2024-04-25T01:44:42.945Z,2.1
2024-04-25T01:45:44.908Z,2.1
2024-04-25T01:46:46.888Z,2.1
2024-04-25T01:47:48.948Z,2.1
2024-04-25T01:48:50.971Z,2.1
2024-04-25T01:49:52.882Z,2.1
2024-04-25T01:50:54.909Z,2.1
2024-04-25T01:51:56.884Z,2.1
2024-04-25T01:52:58.917Z,2.1
2024-04-25T01:54:00.903Z,2.1
2024-04-25T01:55:02.874Z,2.1
2024-04-25T01:56:04.918Z,2.1
2024-04-25T01:57:06.886Z,2.1
2024-04-25T01:58:08.914Z,2.1
2024-04-25T01:59:10.908Z,2.1
2024-04-25T02:00:12.871Z,2
2024-04-25T02:01:14.869Z,2.1
2024-04-25T02:02:16.941Z,2.1
2024-04-25T02:03:19.055Z,2.1
2024-04-25T02:04:20.869Z,2.1
2024-04-25T02:05:22.891Z,2.1
2024-04-25T02:06:24.877Z,2.1
2024-04-25T02:07:26.903Z,2.1
2024-04-25T02:08:28.884Z,2
2024-04-25T02:09:30.863Z,2.1
2024-04-25T02:10:32.858Z,2
2024-04-25T02:11:34.903Z,2.1
2024-04-25T02:12:36.883Z,2.1
2024-04-25T02:13:38.852Z,2
2024-04-25T02:14:40.860Z,2
2024-04-25T02:15:42.849Z,2
2024-04-25T02:16:44.878Z,2.1
2024-04-25T02:17:47.041Z,2
2024-04-25T02:18:48.902Z,2
2024-04-25T02:19:50.853Z,2
2024-04-25T02:20:52.851Z,2
2024-04-25T02:21:54.881Z,2.1
2024-04-25T02:22:56.845Z,2
2024-04-25T02:23:58.842Z,2
2024-04-25T02:25:00.852Z,2
2024-04-25T02:26:02.865Z,2
2024-04-25T02:27:04.865Z,2
2024-04-25T02:28:06.842Z,2
2024-04-25T02:29:08.851Z,2
2024-04-25T02:30:10.841Z,2
2024-04-25T02:31:12.859Z,2
2024-04-25T02:32:14.871Z,2
2024-04-25T02:33:17.036Z,2
2024-04-25T02:34:18.846Z,2
2024-04-25T02:35:20.867Z,2
2024-04-25T02:36:22.851Z,2
2024-04-25T02:37:24.848Z,2
2024-04-25T02:38:26.849Z,2
2024-04-25T02:39:28.823Z,2
2024-04-25T02:40:30.845Z,2
2024-04-25T02:41:32.846Z,2
2024-04-25T02:42:34.823Z,2
2024-04-25T02:43:36.816Z,2
2024-04-25T02:44:38.867Z,2
2024-04-25T02:45:40.846Z,2
2024-04-25T02:46:42.815Z,2
2024-04-25T02:47:44.957Z,2
2024-04-25T02:48:46.895Z,2
2024-04-25T02:49:48.987Z,2
2024-04-25T02:50:50.807Z,2
2024-04-25T02:51:52.808Z,2
2024-04-25T02:52:54.826Z,2
2024-04-25T02:53:56.834Z,2
2024-04-25T02:54:58.839Z,2
2024-04-25T02:56:00.809Z,2
2024-04-25T02:57:02.802Z,2
2024-04-25T02:58:04.796Z,2
2024-04-25T02:59:06.846Z,2
2024-04-25T03:00:08.808Z,2
2024-04-25T03:01:10.826Z,2
2024-04-25T03:02:12.830Z,2
2024-04-25T03:03:14.889Z,2
2024-04-25T03:04:16.890Z,2
2024-04-25T03:05:18.838Z,2
2024-04-25T03:06:20.787Z,1.9
2024-04-25T03:07:22.792Z,1.9
2024-04-25T03:08:24.844Z,2
2024-04-25T03:09:26.785Z,2
2024-04-25T03:10:28.807Z,1.9
2024-04-25T03:11:30.824Z,1.9
2024-04-25T03:12:32.811Z,2
2024-04-25T03:13:37.193Z,2
2024-04-25T03:14:42.088Z,2
2024-04-25T03:15:44.063Z,2
2024-04-25T03:16:46.334Z,2
2024-04-25T03:17:48.158Z,2
2024-04-25T03:18:50.107Z,2
2024-04-25T03:19:52.046Z,2
2024-04-25T03:20:54.049Z,2
2024-04-25T03:21:56.072Z,2
2024-04-25T03:22:58.070Z,2
2024-04-25T03:24:00.058Z,1.9
2024-04-25T03:25:02.825Z,2
2024-04-25T03:26:07.755Z,1.9
2024-04-25T03:27:09.750Z,2
2024-04-25T03:28:11.725Z,2
2024-04-25T03:29:13.739Z,1.9
2024-04-25T03:30:15.729Z,2
2024-04-25T03:31:19.929Z,1.9
2024-04-25T03:32:22.338Z,2
2024-04-25T03:33:24.343Z,2
2024-04-25T03:34:26.207Z,2
2024-04-25T03:35:28.227Z,2
2024-04-25T03:36:30.223Z,2
2024-04-25T03:37:32.203Z,2
2024-04-25T03:38:34.219Z,2
2024-04-25T03:39:36.219Z,2
2024-04-25T03:40:38.223Z,2
2024-04-25T03:41:40.219Z,2
2024-04-25T03:42:42.214Z,2
2024-04-25T03:43:44.188Z,2
2024-04-25T03:44:46.188Z,2
2024-04-25T03:45:48.213Z,2
2024-04-25T03:46:50.185Z,2
2024-04-25T03:47:52.257Z,2
2024-04-25T03:48:54.213Z,2
2024-04-25T03:49:56.222Z,2
2024-04-25T03:50:58.211Z,2
2024-04-25T03:52:00.183Z,2
2024-04-25T03:53:02.193Z,2
2024-04-25T03:54:04.177Z,2
2024-04-25T03:55:06.221Z,2
2024-04-25T03:56:08.226Z,2
2024-04-25T03:57:10.173Z,2
2024-04-25T03:58:12.171Z,2
2024-04-25T03:59:14.210Z,2
2024-04-25T04:00:16.212Z,2
2024-04-25T04:01:18.197Z,2
2024-04-25T04:02:20.202Z,2
2024-04-25T04:03:22.215Z,2
2024-04-25T04:04:24.201Z,2
2024-04-25T04:05:26.287Z,2
2024-04-25T04:06:28.169Z,2
2024-04-25T04:07:30.166Z,2
2024-04-25T04:08:32.214Z,2
2024-04-25T04:09:34.190Z,2
2024-04-25T04:10:36.241Z,2
2024-04-25T04:11:38.283Z,2
2024-04-25T04:12:40.158Z,2
2024-04-25T04:13:42.186Z,2
2024-04-25T04:14:44.187Z,2
2024-04-25T04:15:46.164Z,2
2024-04-25T04:16:48.159Z,2
2024-04-25T04:17:52.989Z,2
2024-04-25T04:18:53.772Z,2
2024-04-25T04:19:55.743Z,2
2024-04-25T04:20:57.745Z,2
2024-04-25T04:21:59.740Z,2
2024-04-25T04:23:01.776Z,2
2024-04-25T04:24:03.744Z,2
2024-04-25T04:25:05.891Z,2
2024-04-25T04:26:07.786Z,2
2024-04-25T04:27:10.220Z,2
2024-04-25T04:28:15.122Z,2
2024-04-25T04:29:16.588Z,2
2024-04-25T04:30:18.572Z,2
2024-04-25T04:31:20.674Z,2
2024-04-25T04:32:22.599Z,2
2024-04-25T04:33:25.144Z,2
2024-04-25T04:34:26.894Z,2
2024-04-25T04:35:28.778Z,2
2024-04-25T04:36:31.000Z,2
2024-04-25T04:37:32.742Z,2
2024-04-25T04:38:35.137Z,2
2024-04-25T04:39:36.881Z,2
2024-04-25T04:40:38.902Z,2
2024-04-25T04:41:41.320Z,2
2024-04-25T04:42:42.733Z,1.9
2024-04-25T04:43:44.699Z,1.9
2024-04-25T04:44:49.256Z,1.9
2024-04-25T04:45:50.851Z,1.9
2024-04-25T04:46:52.880Z,1.9
2024-04-25T04:47:54.965Z,1.9
2024-04-25T04:48:56.896Z,1.9
2024-04-25T04:49:58.850Z,1.8
2024-04-25T04:51:00.870Z,1.8
2024-04-25T04:52:03.060Z,1.8
2024-04-25T04:53:04.847Z,1.8
2024-04-25T04:54:06.841Z,1.8
2024-04-25T04:55:08.839Z,1.8
2024-04-25T04:56:10.897Z,1.7
2024-04-25T04:57:12.871Z,1.8
2024-04-25T04:58:14.836Z,1.8
2024-04-25T04:59:16.857Z,1.8
2024-04-25T05:00:19.230Z,1.8
2024-04-25T05:01:20.918Z,1.8
2024-04-25T05:02:22.924Z,1.8
2024-04-25T05:03:24.867Z,1.8
2024-04-25T05:04:26.831Z,1.8
2024-04-25T05:05:28.864Z,1.8
2024-04-25T05:06:30.826Z,1.7
2024-04-25T05:07:32.827Z,1.7
2024-04-25T05:08:34.829Z,1.7
2024-04-25T05:09:37.013Z,1.7
2024-04-25T05:10:38.859Z,1.7
2024-04-25T05:11:40.915Z,1.7
2024-04-25T05:12:42.839Z,1.7
2024-04-25T05:13:44.828Z,1.7
2024-04-25T05:14:46.885Z,1.7
2024-04-25T05:15:48.921Z,1.7
2024-04-25T05:16:50.817Z,1.7
2024-04-25T05:17:52.822Z,1.7
2024-04-25T05:18:54.824Z,1.6
2024-04-25T05:19:56.838Z,1.7
2024-04-25T05:20:58.806Z,1.7
2024-04-25T05:22:00.822Z,1.7
2024-04-25T05:23:02.809Z,1.7
2024-04-25T05:24:04.997Z,1.7
2024-04-25T05:25:06.847Z,1.7
2024-04-25T05:26:08.867Z,1.7
2024-04-25T05:27:10.803Z,1.7
2024-04-25T05:28:12.820Z,1.6
2024-04-25T05:29:14.850Z,1.7
2024-04-25T05:30:16.793Z,1.6
2024-04-25T05:31:18.821Z,1.6
2024-04-25T05:32:20.801Z,1.6
2024-04-25T05:33:22.910Z,1.6
2024-04-25T05:34:24.819Z,1.7
2024-04-25T05:35:26.813Z,1.7
2024-04-25T05:36:28.793Z,1.8
2024-04-25T05:37:30.792Z,1.8
2024-04-25T05:38:32.828Z,1.9
2024-04-25T05:39:34.789Z,1.9
2024-04-25T05:40:36.785Z,1.9
2024-04-25T05:41:38.823Z,2
2024-04-25T05:42:40.837Z,2
2024-04-25T05:43:42.865Z,2
2024-04-25T05:44:44.822Z,2.1
2024-04-25T05:45:46.777Z,2.1
2024-04-25T05:46:48.778Z,2.1
2024-04-25T05:47:50.918Z,2.2
2024-04-25T05:48:52.810Z,2.2
2024-04-25T05:49:54.777Z,2.2
2024-04-25T05:50:56.806Z,2.3
2024-04-25T05:51:58.799Z,2.3
2024-04-25T05:53:00.893Z,2.2
2024-04-25T05:54:02.771Z,2.2
2024-04-25T05:55:04.875Z,2.3
2024-04-25T05:56:06.828Z,2.3
2024-04-25T05:57:08.805Z,2.3
2024-04-25T05:58:10.763Z,2.3
2024-04-25T05:59:12.815Z,2.3
2024-04-25T06:00:14.776Z,2.4
2024-04-25T06:01:16.801Z,2.4
2024-04-25T06:02:18.808Z,2.5
2024-04-25T06:03:20.785Z,2.5
2024-04-25T06:04:22.828Z,2.5
2024-04-25T06:05:24.757Z,2.6
2024-04-25T06:06:26.776Z,2.7
2024-04-25T06:07:28.748Z,2.7
2024-04-25T06:08:30.772Z,2.8
2024-04-25T06:09:32.745Z,2.8
2024-04-25T06:10:34.798Z,2.8
2024-04-25T06:11:36.831Z,2.9
2024-04-25T06:12:38.960Z,3
2024-04-25T06:13:40.750Z,3.1
2024-04-25T06:14:42.822Z,3.3
2024-04-25T06:15:44.761Z,3.4
2024-04-25T06:16:46.756Z,3.5
2024-04-25T06:17:48.767Z,3.6
2024-04-25T06:18:50.733Z,3.7
2024-04-25T06:19:52.766Z,3.7
2024-04-25T06:20:54.822Z,3.7
2024-04-25T06:21:56.729Z,3.6
2024-04-25T06:22:58.726Z,3.6
2024-04-25T06:24:01.138Z,3.5
2024-04-25T06:25:03.038Z,3.5
2024-04-25T06:26:04.837Z,3.6
2024-04-25T06:27:06.775Z,3.6
2024-04-25T06:28:08.741Z,3.7
2024-04-25T06:29:10.760Z,3.7
2024-04-25T06:30:12.774Z,3.7
2024-04-25T06:31:14.716Z,3.7
2024-04-25T06:32:16.788Z,3.7
2024-04-25T06:33:18.813Z,3.6
2024-04-25T06:34:20.752Z,3.6
2024-04-25T06:35:22.733Z,3.5
2024-04-25T06:36:24.719Z,3.5
2024-04-25T06:37:26.729Z,3.5
2024-04-25T06:38:28.761Z,3.5
2024-04-25T06:39:30.734Z,3.5
2024-04-25T06:40:32.703Z,3.5
2024-04-25T06:41:40.295Z,3.5
2024-04-25T06:42:56.854Z,3.6
2024-04-25T06:44:00.583Z,3.6
2024-04-25T06:45:19.138Z,3.7
2024-04-25T06:46:21.081Z,3.7
2024-04-25T06:47:23.158Z,3.7
2024-04-25T06:48:25.264Z,3.7
2024-04-25T06:49:27.136Z,3.8
2024-04-25T06:50:29.118Z,3.8
2024-04-25T06:51:31.092Z,3.9
2024-04-25T06:52:33.122Z,3.9
2024-04-25T06:53:35.122Z,3.9
2024-04-25T06:54:37.082Z,3.9
2024-04-25T06:55:39.079Z,3.9
2024-04-25T06:56:41.104Z,4
2024-04-25T06:57:43.107Z,4
2024-04-25T06:58:45.069Z,4
2024-04-25T06:59:48.161Z,4.1
2024-04-25T07:00:49.457Z,4.1
2024-04-25T07:01:51.422Z,4.1
2024-04-25T07:02:53.421Z,4.1
2024-04-25T07:03:55.375Z,4.1
2024-04-25T07:04:59.403Z,4
2024-04-25T07:06:00.844Z,3.9
2024-04-25T07:07:02.817Z,3.9
2024-04-25T07:08:04.794Z,3.9
2024-04-25T07:09:07.129Z,3.9
2024-04-25T07:10:08.794Z,3.9
2024-04-25T07:11:10.894Z,3.9
2024-04-25T07:12:13.323Z,3.9
2024-04-25T07:13:14.789Z,4
2024-04-25T07:14:16.832Z,4
2024-04-25T07:15:18.784Z,4.1
2024-04-25T07:16:20.828Z,4
2024-04-25T07:17:23.030Z,4
2024-04-25T07:18:24.850Z,4
2024-04-25T07:19:26.776Z,4
2024-04-25T07:20:28.860Z,3.9
2024-04-25T07:21:30.816Z,3.9
2024-04-25T07:22:32.781Z,3.8
2024-04-25T07:23:34.792Z,3.8
2024-04-25T07:24:36.789Z,3.7
2024-04-25T07:25:39.649Z,3.7
2024-04-25T07:26:40.812Z,3.6
2024-04-25T07:27:42.771Z,3.6
2024-04-25T07:28:44.777Z,3.5
2024-04-25T07:29:47.297Z,3.5
2024-04-25T07:30:48.792Z,3.5
2024-04-25T07:31:50.785Z,3.5
2024-04-25T07:32:52.846Z,3.5
2024-04-25T07:33:54.886Z,3.5
2024-04-25T07:34:56.951Z,3.5
2024-04-25T07:35:58.775Z,3.5
2024-04-25T07:37:00.784Z,3.5
2024-04-25T07:38:02.761Z,3.5
2024-04-25T07:39:04.841Z,3.4
2024-04-25T07:40:06.779Z,3.4
2024-04-25T07:41:08.817Z,3.4
2024-04-25T07:42:10.752Z,3.4
2024-04-25T07:43:12.763Z,3.5
2024-04-25T07:44:14.784Z,3.5
2024-04-25T07:45:16.755Z,3.5
2024-04-25T07:46:18.745Z,3.5
2024-04-25T07:47:20.781Z,3.5
2024-04-25T07:48:22.842Z,3.5
2024-04-25T07:49:24.892Z,3.4
2024-04-25T07:50:26.766Z,3.3
2024-04-25T07:51:28.737Z,3.3
2024-04-25T07:52:30.740Z,3.3
2024-04-25T07:53:32.809Z,3.3
2024-04-25T07:54:34.736Z,3.3
2024-04-25T07:55:36.735Z,3.4
2024-04-25T07:56:38.784Z,3.5
2024-04-25T07:57:40.738Z,3.5
2024-04-25T07:58:42.780Z,3.6
2024-04-25T07:59:44.801Z,3.7
2024-04-25T08:00:46.776Z,3.7
2024-04-25T08:01:48.737Z,3.8
2024-04-25T08:02:50.850Z,3.8
2024-04-25T08:03:52.750Z,3.8
2024-04-25T08:04:54.823Z,3.7
2024-04-25T08:05:56.774Z,3.6
2024-04-25T08:06:58.723Z,3.6
2024-04-25T08:08:00.750Z,3.5
2024-04-25T08:09:02.743Z,3.5
2024-04-25T08:10:04.717Z,3.5
2024-04-25T08:11:06.756Z,3.5
2024-04-25T08:12:08.786Z,3.5
2024-04-25T08:13:10.745Z,3.6
2024-04-25T08:14:12.909Z,3.6
2024-04-25T08:15:14.718Z,3.6
2024-04-25T08:16:16.721Z,3.7
2024-04-25T08:17:18.825Z,3.8
2024-04-25T08:18:20.806Z,3.9
2024-04-25T08:19:22.729Z,3.9
2024-04-25T08:20:26.920Z,4
2024-04-25T08:21:28.067Z,4
2024-04-25T08:22:30.058Z,4.1
2024-04-25T08:23:32.077Z,4.1
2024-04-25T08:24:34.317Z,4.2
2024-04-25T08:25:36.037Z,4.4
2024-04-25T08:26:38.084Z,4.5
2024-04-25T08:27:40.024Z,4.7
2024-04-25T08:28:42.016Z,4.7
2024-04-25T08:29:44.101Z,4.9
2024-04-25T08:30:46.332Z,4.9
2024-04-25T08:31:48.041Z,5
2024-04-25T08:32:50.648Z,5
2024-04-25T08:33:52.229Z,5.1
2024-04-25T08:34:54.081Z,5.1
2024-04-25T08:35:56.078Z,5.1
2024-04-25T08:36:58.354Z,5.1
2024-04-25T08:38:00.471Z,5.2
2024-04-25T08:39:02.497Z,5.2
2024-04-25T08:40:04.522Z,5.1
2024-04-25T08:41:06.879Z,5.1
2024-04-25T08:42:08.323Z,5
2024-04-25T08:43:10.379Z,5.1
2024-04-25T08:44:14.050Z,5.1
2024-04-25T08:45:17.522Z,5.1
2024-04-25T08:46:19.918Z,5.3
2024-04-25T08:47:21.773Z,5.3
2024-04-25T08:48:23.828Z,5.4
2024-04-25T08:49:25.809Z,5.5
2024-04-25T08:50:27.473Z,5.6
2024-04-25T08:51:29.456Z,5.6
2024-04-25T08:52:31.447Z,5.6
2024-04-25T08:53:33.437Z,5.5
2024-04-25T08:54:35.820Z,5.5
2024-04-25T08:55:37.451Z,5.6
2024-04-25T08:56:39.475Z,5.6
2024-04-25T08:57:41.432Z,5.7
2024-04-25T08:58:43.418Z,5.9
2024-04-25T08:59:45.463Z,6.1
2024-04-25T09:00:47.426Z,6.2
2024-04-25T09:01:49.416Z,6.3
2024-04-25T09:02:51.462Z,6.4
2024-04-25T09:03:53.511Z,6.5
2024-04-25T09:04:55.484Z,6.5
2024-04-25T09:05:57.423Z,6.5
2024-04-25T09:06:59.411Z,6.5
2024-04-25T09:08:01.408Z,6.6
2024-04-25T09:09:03.434Z,6.6
2024-04-25T09:10:05.448Z,6.6
2024-04-25T09:11:07.412Z,6.5
2024-04-25T09:12:09.525Z,6.3
2024-04-25T09:13:11.449Z,6.1
2024-04-25T09:14:13.433Z,5.9
2024-04-25T09:15:15.424Z,5.8
2024-04-25T09:16:17.482Z,5.7
2024-04-25T09:17:19.465Z,5.6
2024-04-25T09:18:21.509Z,5.5
2024-04-25T09:19:23.394Z,5.5
2024-04-25T09:20:25.434Z,5.5
2024-04-25T09:21:27.399Z,5.5
2024-04-25T09:22:29.421Z,5.6
2024-04-25T09:23:31.486Z,5.8
2024-04-25T09:24:33.396Z,5.9
2024-04-25T09:25:35.388Z,6
2024-04-25T09:26:37.461Z,6.1
2024-04-25T09:27:39.417Z,6.2
2024-04-25T09:28:43.188Z,6.3
2024-04-25T09:29:44.312Z,6.2
2024-04-25T09:30:46.250Z,6.2
2024-04-25T09:31:48.275Z,6.2
2024-04-25T09:32:50.623Z,6.1
2024-04-25T09:33:52.320Z,5.9
2024-04-25T09:34:54.239Z,5.8
2024-04-25T09:35:56.302Z,5.7
2024-04-25T09:36:58.264Z,5.5
2024-04-25T09:38:00.246Z,5.4
2024-04-25T09:39:02.251Z,5.3
2024-04-25T09:40:05.908Z,5.1
2024-04-25T09:41:07.798Z,5
2024-04-25T09:42:09.809Z,4.9
2024-04-25T09:43:11.769Z,4.9
2024-04-25T09:44:13.843Z,4.9
2024-04-25T09:45:15.769Z,5
2024-04-25T09:46:17.827Z,5.1
2024-04-25T09:47:19.810Z,5.3
2024-04-25T09:48:21.825Z,5.3
2024-04-25T09:49:23.760Z,5.5
2024-04-25T09:50:25.852Z,5.6
2024-04-25T09:51:27.799Z,5.7
2024-04-25T09:52:29.766Z,5.8
2024-04-25T09:53:32.541Z,6
2024-04-25T09:54:36.941Z,6.1
2024-04-25T09:55:39.470Z,6.1
2024-04-25T09:56:40.992Z,6.3
2024-04-25T09:57:42.953Z,6.4
2024-04-25T09:58:44.942Z,6.4
2024-04-25T09:59:47.038Z,6.5
2024-04-25T10:00:48.995Z,6.4
2024-04-25T10:01:50.955Z,6.3
2024-04-25T10:02:52.949Z,6.3
2024-04-25T10:03:54.957Z,6.4
2024-04-25T10:04:57.329Z,6.4
2024-04-25T10:05:58.943Z,6.5
2024-04-25T10:07:00.951Z,6.6
2024-04-25T10:08:02.927Z,6.5
2024-04-25T10:09:05.044Z,6.4
2024-04-25T10:10:06.962Z,6.3
2024-04-25T10:11:10.597Z,6.1
2024-04-25T10:12:11.572Z,6
2024-04-25T10:13:13.561Z,6
2024-04-25T10:14:15.600Z,6
2024-04-25T10:15:17.562Z,6.1
2024-04-25T10:16:19.926Z,6.2
2024-04-25T10:17:21.596Z,6.4
2024-04-25T10:18:23.676Z,6.6
2024-04-25T10:19:25.575Z,6.7
2024-04-25T10:20:27.579Z,6.9
2024-04-25T10:21:29.552Z,7.2
2024-04-25T10:22:33.036Z,7.4
2024-04-25T10:23:35.756Z,7.5
2024-04-25T10:24:37.699Z,7.5
2024-04-25T10:25:39.748Z,7.6
2024-04-25T10:26:41.773Z,7.8
2024-04-25T10:27:44.061Z,7.9
2024-04-25T10:28:45.721Z,8
2024-04-25T10:29:47.704Z,8
2024-04-25T10:30:49.942Z,8
2024-04-25T10:31:51.728Z,8
2024-04-25T10:32:53.900Z,8
2024-04-25T10:33:55.712Z,8
2024-04-25T10:34:57.697Z,8
2024-04-25T10:35:59.687Z,8.1
2024-04-25T10:37:01.704Z,8.3
2024-04-25T10:38:03.771Z,8.6
2024-04-25T10:39:07.933Z,8.8
2024-04-25T10:40:10.433Z,8.9
2024-04-25T10:41:12.602Z,9
2024-04-25T10:42:14.456Z,9
2024-04-25T10:43:16.421Z,9
2024-04-25T10:44:18.433Z,9.1
2024-04-25T10:45:20.436Z,9.1
2024-04-25T10:46:22.438Z,9.1
2024-04-25T10:47:24.491Z,9.2
2024-04-25T10:48:26.549Z,9.4
2024-04-25T10:49:28.494Z,9.5
2024-04-25T10:50:30.421Z,9.4
2024-04-25T10:51:32.445Z,9.3
2024-04-25T10:52:34.427Z,9.2
2024-04-25T10:53:36.442Z,9.2
2024-04-25T10:54:38.393Z,9.2
2024-04-25T10:55:40.398Z,9
2024-04-25T10:56:42.538Z,9
2024-04-25T10:57:44.397Z,9
2024-04-25T10:58:46.396Z,9
2024-04-25T10:59:50.036Z,8.9
2024-04-25T11:00:50.943Z,8.8
2024-04-25T11:01:56.203Z,8.7
2024-04-25T11:02:56.906Z,8.6
2024-04-25T11:03:58.864Z,8.5
2024-04-25T11:05:00.852Z,8.4
2024-04-25T11:06:02.891Z,8.1
2024-04-25T11:07:06.905Z,8
2024-04-25T11:08:08.067Z,7.8
2024-04-25T11:09:10.312Z,7.6
2024-04-25T11:10:12.079Z,7.5
2024-04-25T11:11:14.074Z,7.3
2024-04-25T11:12:16.108Z,7.2
2024-04-25T11:13:18.042Z,7
2024-04-25T11:14:20.086Z,7
2024-04-25T11:15:22.117Z,6.9
2024-04-25T11:16:24.039Z,6.8
2024-04-25T11:17:26.710Z,6.8
2024-04-25T11:18:37.577Z,6.8
2024-04-25T11:19:43.527Z,6.8
2024-04-25T11:20:51.336Z,6.8
2024-04-25T11:21:53.281Z,6.8
2024-04-25T11:22:55.386Z,6.8
2024-04-25T11:23:57.210Z,6.8
2024-04-25T11:25:00.053Z,6.9
2024-04-25T11:26:01.132Z,6.9
2024-04-25T11:27:03.136Z,6.9
2024-04-25T11:28:05.160Z,7
2024-04-25T11:29:07.153Z,7
2024-04-25T11:30:09.142Z,7
2024-04-25T11:31:11.145Z,6.9
2024-04-25T11:32:13.148Z,7
2024-04-25T11:33:15.226Z,7
2024-04-25T11:34:17.147Z,7.1
2024-04-25T11:35:19.155Z,7.2
2024-04-25T11:36:21.119Z,7.3
2024-04-25T11:37:23.532Z,7.5
2024-04-25T11:38:25.286Z,7.5
2024-04-25T11:39:27.114Z,7.6
2024-04-25T11:40:29.127Z,7.8
2024-04-25T11:41:31.157Z,7.9
2024-04-25T11:42:33.137Z,8.1
2024-04-25T11:43:35.138Z,8.4
2024-04-25T11:44:37.131Z,8.5
2024-04-25T11:45:39.162Z,8.6
2024-04-25T11:46:41.115Z,8.5
2024-04-25T11:47:43.286Z,8.5
2024-04-25T11:48:45.150Z,8.5
2024-04-25T11:49:47.102Z,8.4
2024-04-25T11:50:49.479Z,8.3
2024-04-25T11:51:51.124Z,8.2
2024-04-25T11:52:53.127Z,8.1
2024-04-25T11:53:55.137Z,8
2024-04-25T11:54:57.528Z,8
2024-04-25T11:55:59.114Z,7.9
2024-04-25T11:57:01.151Z,7.8
2024-04-25T11:58:03.094Z,7.8
2024-04-25T11:59:05.109Z,7.6
2024-04-25T12:00:07.504Z,7.5
2024-04-25T12:01:09.305Z,7.5
2024-04-25T12:02:11.425Z,7.5
2024-04-25T12:03:13.660Z,7.5
2024-04-25T12:04:15.128Z,7.4
2024-04-25T12:05:17.227Z,7.4
2024-04-25T12:06:19.117Z,7.4
2024-04-25T12:07:21.301Z,7.3
2024-04-25T12:08:23.098Z,7.1
2024-04-25T12:09:25.412Z,7
2024-04-25T12:10:27.117Z,7
2024-04-25T12:11:29.134Z,7
2024-04-25T12:12:31.103Z,7
2024-04-25T12:13:33.076Z,7.1
2024-04-25T12:14:35.711Z,7.2
2024-04-25T12:15:37.105Z,7.2
2024-04-25T12:16:39.120Z,7.2
2024-04-25T12:17:41.106Z,7.2
2024-04-25T12:18:43.121Z,7.3
2024-04-25T12:19:45.092Z,7.4
2024-04-25T12:20:47.502Z,7.4
2024-04-25T12:21:49.416Z,7.5
2024-04-25T12:22:51.180Z,7.5
2024-04-25T12:23:53.302Z,7.6
2024-04-25T12:24:55.618Z,7.6
2024-04-25T12:25:57.633Z,7.5
2024-04-25T12:26:59.409Z,7.4
2024-04-25T12:28:01.132Z,7.4
2024-04-25T12:29:03.839Z,7.4
2024-04-25T12:30:05.566Z,7.5
2024-04-25T12:31:07.333Z,7.5
2024-04-25T12:32:09.630Z,7.5
2024-04-25T12:33:11.319Z,7.6
2024-04-25T12:34:14.515Z,7.6
2024-04-25T12:35:16.248Z,7.7
2024-04-25T12:36:18.216Z,7.7
2024-04-25T12:37:20.323Z,7.8
2024-04-25T12:38:22.352Z,7.8
2024-04-25T12:39:24.385Z,7.6
2024-04-25T12:40:26.145Z,7.6
2024-04-25T12:41:28.219Z,7.5
2024-04-25T12:42:30.339Z,7.6
2024-04-25T12:43:32.317Z,7.6
2024-04-25T12:44:33.768Z,7.8
2024-04-25T12:45:37.417Z,7.8
2024-04-25T12:46:38.464Z,7.9
2024-04-25T12:47:40.822Z,7.8
2024-04-25T12:48:42.483Z,7.8
2024-04-25T12:49:44.624Z,7.8
2024-04-25T12:50:46.701Z,7.8
2024-04-25T12:51:48.387Z,7.8
2024-04-25T12:52:50.749Z,7.7
2024-04-25T12:53:52.560Z,7.6
2024-04-25T12:54:54.573Z,7.5
2024-04-25T12:55:56.297Z,7.2
2024-04-25T12:56:58.312Z,6.9
2024-04-25T12:58:00.337Z,6.7
2024-04-25T12:59:02.296Z,6.6
2024-04-25T13:00:04.281Z,6.5
2024-04-25T13:01:06.988Z,6.3
2024-04-25T13:02:08.315Z,6.3
2024-04-25T13:03:10.342Z,6.2
2024-04-25T13:04:12.524Z,6.1
2024-04-25T13:05:14.906Z,6
2024-04-25T13:06:16.302Z,6.1
2024-04-25T13:07:18.996Z,6.1
2024-04-25T13:08:20.760Z,6.1
2024-04-25T13:09:23.078Z,6.1
2024-04-25T13:10:29.096Z,6.1
2024-04-25T13:11:31.257Z,6.1
2024-04-25T13:12:33.216Z,6.2
2024-04-25T13:13:34.642Z,6.2
2024-04-25T13:14:37.083Z,6.2
2024-04-25T13:15:39.071Z,6.3
2024-04-25T13:16:40.650Z,6.3
2024-04-25T13:17:42.676Z,6.3
2024-04-25T13:18:45.095Z,6.4
2024-04-25T13:19:46.976Z,6.4
2024-04-25T13:20:48.695Z,6.4
2024-04-25T13:21:50.610Z,6.3
2024-04-25T13:22:53.140Z,6.3
2024-04-25T13:23:55.174Z,6.2
2024-04-25T13:24:56.638Z,6.2
2024-04-25T13:25:59.050Z,6.1
2024-04-25T13:27:02.996Z,6
2024-04-25T13:28:05.217Z,5.9
2024-04-25T13:29:06.807Z,5.8
2024-04-25T13:30:09.328Z,5.7
2024-04-25T13:31:10.781Z,5.6
2024-04-25T13:32:12.856Z,5.5
2024-04-25T13:33:14.975Z,5.5
2024-04-25T13:34:17.312Z,5.3
2024-04-25T13:35:18.872Z,5.2
2024-04-25T13:36:20.773Z,5
2024-04-25T13:37:22.780Z,4.9
2024-04-25T13:38:24.958Z,4.9
2024-04-25T13:39:26.803Z,4.8
2024-04-25T13:40:29.009Z,4.9
2024-04-25T13:41:31.146Z,4.9
2024-04-25T13:42:32.964Z,4.9
2024-04-25T13:43:34.850Z,4.9
2024-04-25T13:44:37.246Z,4.9
2024-04-25T13:45:38.832Z,5
2024-04-25T13:46:41.015Z,5
2024-04-25T13:47:42.950Z,5
2024-04-25T13:48:45.552Z,5
2024-04-25T13:49:46.824Z,5
2024-04-25T13:50:48.818Z,5.1
2024-04-25T13:51:50.793Z,5.1
2024-04-25T13:52:53.328Z,5.1
2024-04-25T13:53:54.836Z,5.1
2024-04-25T13:54:56.790Z,5.2
2024-04-25T13:55:58.908Z,5.3
2024-04-25T13:57:00.911Z,5.5
2024-04-25T13:58:03.294Z,5.7
2024-04-25T13:59:05.632Z,5.9
2024-04-25T14:00:07.588Z,6.1
2024-04-25T14:01:09.667Z,6.2
2024-04-25T14:02:11.663Z,6.3
2024-04-25T14:03:13.590Z,6.5
2024-04-25T14:04:15.575Z,6.6
2024-04-25T14:05:17.602Z,6.7
2024-04-25T14:06:19.604Z,6.8
2024-04-25T14:07:21.758Z,6.9
2024-04-25T14:08:23.832Z,7
2024-04-25T14:09:26.186Z,7.2
2024-04-25T14:10:27.631Z,7.4
2024-04-25T14:11:29.698Z,7.6
2024-04-25T14:12:31.653Z,7.8
2024-04-25T14:13:33.782Z,8
2024-04-25T14:14:36.204Z,8
2024-04-25T14:15:37.606Z,8.1
2024-04-25T14:16:39.565Z,8
2024-04-25T14:17:41.777Z,8
2024-04-25T14:18:43.539Z,8
2024-04-25T14:19:45.553Z,8
2024-04-25T14:20:47.571Z,7.9
2024-04-25T14:21:49.571Z,7.9
2024-04-25T14:22:51.533Z,7.8
2024-04-25T14:23:53.555Z,7.8
2024-04-25T14:24:55.579Z,7.7
2024-04-25T14:25:57.602Z,7.6
2024-04-25T14:26:59.564Z,7.6
2024-04-25T14:28:01.527Z,7.6
2024-04-25T14:29:03.678Z,7.6
2024-04-25T14:30:06.045Z,7.7
2024-04-25T14:31:07.644Z,7.7
2024-04-25T14:32:09.611Z,7.8
2024-04-25T14:33:12.002Z,7.8
2024-04-25T14:34:13.614Z,8